createdAt,value
2019-01-21T00:01:17.307Z,26.83
2019-01-21T00:03:49.049Z,25.37
2019-01-21T00:06:18.788Z,26.50
2019-01-21T00:08:48.346Z,23.87
2019-01-21T00:11:17.989Z,23.33
2019-01-21T00:13:47.466Z,23.50
2019-01-21T00:16:17.073Z,22.57
2019-01-21T00:18:46.753Z,24.53
2019-01-21T00:21:16.388Z,23.60
2019-01-21T00:23:45.944Z,26.50
2019-01-21T00:26:15.575Z,25.80
2019-01-21T00:28:45.225Z,29.40
2019-01-21T00:31:14.867Z,28.43
2019-01-21T00:33:44.475Z,27.50
2019-01-21T00:36:14.051Z,27.20
2019-01-21T00:38:43.610Z,26.50
2019-01-21T00:41:13.085Z,22.70
2019-01-21T00:43:42.527Z,26.93
2019-01-21T00:46:12.167Z,23.43
2019-01-21T00:48:41.776Z,28.30
2019-01-21T00:51:11.360Z,25.00
2019-01-21T00:53:40.805Z,25.00
2019-01-21T00:56:10.394Z,28.70
2019-01-21T00:58:40.039Z,30.57
2019-01-21T01:01:09.806Z,23.33
2019-01-21T01:03:39.489Z,31.57
2019-01-21T01:06:09.287Z,29.57
2019-01-21T01:08:39.074Z,27.43
2019-01-21T01:11:08.684Z,29.13
2019-01-21T01:13:38.442Z,30.23
2019-01-21T01:16:07.958Z,25.80
2019-01-21T01:18:37.837Z,25.97
2019-01-21T01:21:07.309Z,25.77
2019-01-21T01:23:39.905Z,30.37
2019-01-21T01:26:09.397Z,32.17
2019-01-21T01:28:40.916Z,29.40
2019-01-21T01:31:10.659Z,28.10
2019-01-21T01:33:40.325Z,26.87
2019-01-21T01:36:09.925Z,31.43
2019-01-21T01:38:41.365Z,27.03
2019-01-21T01:41:10.821Z,26.90
2019-01-21T01:43:41.065Z,30.30
2019-01-21T01:46:10.733Z,29.50
2019-01-21T01:48:40.415Z,30.00
2019-01-21T01:51:12.720Z,27.73
2019-01-21T01:53:42.408Z,26.83
2019-01-21T01:56:12.577Z,31.27
2019-01-21T01:58:45.430Z,26.67
2019-01-21T02:01:15.059Z,29.50
2019-01-21T02:03:44.920Z,31.30
2019-01-21T02:06:14.655Z,27.60
2019-01-21T02:08:44.281Z,33.27
2019-01-21T02:11:13.706Z,27.53
2019-01-21T02:13:43.237Z,26.03
2019-01-21T02:16:13.083Z,27.30
2019-01-21T02:18:42.651Z,29.27
2019-01-21T02:21:12.210Z,29.17
2019-01-21T02:23:44.050Z,27.43
2019-01-21T02:26:23.565Z,27.73
2019-01-21T02:29:02.847Z,32.20
2019-01-21T02:32:08.004Z,30.97
2019-01-21T02:34:55.958Z,33.47
2019-01-21T02:38:00.102Z,24.67
2019-01-21T02:40:58.404Z,26.10
2019-01-21T02:43:46.401Z,29.40
2019-01-21T02:47:05.365Z,28.70
2019-01-21T02:50:10.902Z,25.90
2019-01-21T02:53:16.565Z,28.30
2019-01-21T02:56:14.268Z,24.73
2019-01-21T02:59:38.415Z,29.40
2019-01-21T03:02:46.448Z,28.80
2019-01-21T03:05:53.677Z,25.97
2019-01-21T03:08:51.303Z,29.60
2019-01-21T03:11:58.558Z,32.00
2019-01-21T03:15:04.851Z,27.50
2019-01-21T03:18:20.931Z,25.23
2019-01-21T03:21:40.370Z,25.60
2019-01-21T03:24:58.352Z,25.27
2019-01-21T03:28:08.303Z,27.63
2019-01-21T03:31:17.406Z,29.60
2019-01-21T03:34:30.962Z,26.57
2019-01-21T03:37:49.584Z,25.93
2019-01-21T03:40:53.868Z,27.20
2019-01-21T03:44:00.773Z,28.37
2019-01-21T03:47:15.610Z,26.60
2019-01-21T03:50:22.463Z,25.23
2019-01-21T03:53:21.719Z,27.10
2019-01-21T03:55:55.772Z,28.43
2019-01-21T03:59:01.832Z,29.37
2019-01-21T04:02:11.559Z,26.50
2019-01-21T04:05:28.029Z,24.13
2019-01-21T04:08:21.888Z,28.13
2019-01-21T04:11:41.546Z,28.80
2019-01-21T04:14:43.322Z,27.07
2019-01-21T04:17:40.690Z,23.60
2019-01-21T04:20:37.676Z,27.00
2019-01-21T04:23:45.638Z,26.20
2019-01-21T04:26:45.180Z,27.87
2019-01-21T04:30:04.298Z,27.93
2019-01-21T04:33:23.915Z,27.07
2019-01-21T04:36:24.593Z,25.37
2019-01-21T04:39:23.483Z,26.57
2019-01-21T04:42:18.641Z,27.77
2019-01-21T04:44:59.853Z,27.10
2019-01-21T04:48:20.459Z,24.57
2019-01-21T04:51:39.161Z,24.53
2019-01-21T04:55:00.389Z,27.17
2019-01-21T04:58:09.410Z,26.37
2019-01-21T05:01:15.430Z,23.87
2019-01-21T05:04:31.839Z,26.00
2019-01-21T05:07:30.695Z,25.17
2019-01-21T05:10:26.348Z,28.00
2019-01-21T05:13:37.181Z,24.67
2019-01-21T05:16:36.459Z,24.00
2019-01-21T05:19:42.396Z,25.33
2019-01-21T05:22:48.120Z,24.90
2019-01-21T05:25:34.257Z,26.30
2019-01-21T05:28:31.621Z,24.00
2019-01-21T05:31:43.905Z,24.30
2019-01-21T05:34:53.432Z,23.53
2019-01-21T05:38:01.391Z,27.30
2019-01-21T05:41:02.351Z,24.40
2019-01-21T05:44:21.044Z,21.97
2019-01-21T05:47:34.088Z,22.60
2019-01-21T05:50:28.610Z,20.30
2019-01-21T05:53:39.357Z,25.17
2019-01-21T05:57:05.258Z,24.00
2019-01-21T06:00:02.814Z,24.30
2019-01-21T06:03:09.017Z,21.37
2019-01-21T06:06:11.855Z,21.17
2019-01-21T06:09:34.265Z,25.53
2019-01-21T06:12:14.422Z,21.50
2019-01-21T06:15:13.987Z,26.30
2019-01-21T06:18:06.886Z,20.73
2019-01-21T06:21:11.725Z,23.83
2019-01-21T06:24:16.434Z,26.40
2019-01-21T06:27:13.480Z,24.97
2019-01-21T06:30:25.936Z,24.37
2019-01-21T06:33:32.435Z,22.77
2019-01-21T06:36:12.063Z,24.93
2019-01-21T06:39:16.994Z,23.17
2019-01-21T06:42:23.274Z,21.07
2019-01-21T06:45:36.728Z,23.80
2019-01-21T06:48:50.583Z,24.70
2019-01-21T06:51:56.487Z,21.60
2019-01-21T06:54:46.426Z,27.90
2019-01-21T06:58:11.503Z,29.00
2019-01-21T07:01:18.597Z,26.20
2019-01-21T07:04:28.134Z,24.03
2019-01-21T07:07:42.461Z,22.30
2019-01-21T07:10:55.330Z,24.43
2019-01-21T07:14:05.686Z,23.90
2019-01-21T07:16:57.939Z,29.63
2019-01-21T07:20:07.657Z,23.20
2019-01-21T07:22:51.277Z,24.00
2019-01-21T07:26:09.801Z,29.50
2019-01-21T07:29:17.148Z,23.40
2019-01-21T07:32:15.405Z,25.40
2019-01-21T07:35:41.293Z,25.10
2019-01-21T07:38:17.504Z,26.23
2019-01-21T07:41:15.802Z,25.43
2019-01-21T07:43:59.886Z,26.00
2019-01-21T07:46:57.287Z,23.77
2019-01-21T07:49:52.288Z,25.67
2019-01-21T07:53:06.187Z,24.87
2019-01-21T07:56:03.440Z,23.40
2019-01-21T07:58:57.531Z,25.93
2019-01-21T08:02:00.861Z,28.27
2019-01-21T08:05:07.417Z,25.70
2019-01-21T08:07:49.618Z,26.07
2019-01-21T08:11:12.193Z,25.87
2019-01-21T08:13:51.610Z,22.37
2019-01-21T08:16:57.825Z,22.90
2019-01-21T08:19:53.024Z,26.77
2019-01-21T08:22:58.363Z,26.23
2019-01-21T08:25:59.654Z,32.77
2019-01-21T08:29:14.179Z,29.50
2019-01-21T08:32:31.376Z,29.00
2019-01-21T08:35:41.829Z,23.80
2019-01-21T08:39:07.312Z,26.87
2019-01-21T08:41:50.947Z,29.33
2019-01-21T08:44:58.103Z,27.43
2019-01-21T08:47:49.707Z,25.13
2019-01-21T08:50:49.706Z,28.27
2019-01-21T08:53:35.495Z,29.43
2019-01-21T08:56:58.034Z,29.17
2019-01-21T08:59:46.707Z,29.03
2019-01-21T09:02:31.547Z,29.17
2019-01-21T09:05:37.198Z,29.33
2019-01-21T09:08:53.804Z,30.10
2019-01-21T09:11:59.071Z,30.47
2019-01-21T09:15:05.668Z,32.17
2019-01-21T09:18:13.615Z,27.90
2019-01-21T09:21:34.998Z,29.50
2019-01-21T09:24:57.705Z,32.50
2019-01-21T09:27:50.640Z,34.60
2019-01-21T09:30:49.075Z,31.17
2019-01-21T09:33:56.561Z,32.67
2019-01-21T09:37:09.489Z,34.70
2019-01-21T09:40:09.265Z,34.87
2019-01-21T09:42:57.014Z,35.27
2019-01-21T09:45:57.418Z,35.00
2019-01-21T09:48:25.176Z,33.50
2019-01-21T09:50:54.930Z,36.60
2019-01-21T09:54:00.833Z,34.50
2019-01-21T09:56:49.573Z,37.50
2019-01-21T10:00:01.250Z,33.03
2019-01-21T10:03:15.029Z,35.47
2019-01-21T10:06:05.833Z,35.37
2019-01-21T10:16:59.422Z,30.30
2019-01-21T10:20:00.585Z,32.37
2019-01-21T10:26:59.069Z,31.07
2019-01-21T10:30:08.705Z,36.67
2019-01-21T10:33:24.061Z,34.47
2019-01-21T10:40:38.766Z,32.97
2019-01-21T10:47:10.970Z,33.90
2019-01-21T10:50:14.645Z,33.13
2019-01-21T10:53:22.579Z,35.97
2019-01-21T10:56:37.443Z,37.37
2019-01-21T10:59:24.099Z,39.93
2019-01-21T11:02:18.860Z,38.63
2019-01-21T11:05:09.866Z,37.90
2019-01-21T11:08:20.543Z,38.83
2019-01-21T11:11:32.226Z,36.90
2019-01-21T11:14:31.626Z,37.47
2019-01-21T11:17:39.240Z,36.87
2019-01-21T11:20:55.484Z,35.47
2019-01-21T11:24:08.927Z,39.23
2019-01-21T11:27:09.334Z,41.70
2019-01-21T11:30:02.284Z,39.47
2019-01-21T11:33:07.685Z,35.53
2019-01-21T11:36:02.344Z,43.10
2019-01-21T11:38:59.212Z,41.80
2019-01-21T11:41:54.124Z,39.30
2019-01-21T11:45:10.683Z,40.00
2019-01-21T11:48:43.242Z,38.50
2019-01-21T11:51:48.985Z,36.30
2019-01-21T11:54:47.966Z,40.00
2019-01-21T11:57:52.287Z,40.40
2019-01-21T12:00:41.370Z,39.53
2019-01-21T12:03:32.884Z,43.40
2019-01-21T12:06:08.698Z,39.80
2019-01-21T12:09:20.644Z,40.20
2019-01-21T12:12:27.043Z,38.43
2019-01-21T12:15:34.663Z,40.67
2019-01-21T12:18:55.422Z,38.87
2019-01-21T12:22:02.205Z,42.40
2019-01-21T12:24:56.931Z,42.07
2019-01-21T12:28:23.100Z,39.30
2019-01-21T12:31:27.499Z,37.70
2019-01-21T12:34:14.066Z,37.97
2019-01-21T12:37:01.959Z,38.37
2019-01-21T12:40:14.046Z,42.00
2019-01-21T12:43:42.297Z,38.27
2019-01-21T12:46:56.863Z,37.23
2019-01-21T12:50:16.517Z,40.17
2019-01-21T12:53:19.569Z,36.53
2019-01-21T12:56:42.514Z,34.37
2019-01-21T13:00:01.189Z,39.00
2019-01-21T13:03:07.617Z,32.80
2019-01-21T13:05:49.128Z,35.47
2019-01-21T13:08:26.491Z,40.60
2019-01-21T13:11:34.238Z,41.77
2019-01-21T13:14:59.038Z,40.10
2019-01-21T13:18:20.593Z,29.47
2019-01-21T13:21:36.139Z,33.40
2019-01-21T13:24:32.412Z,38.63
2019-01-21T13:27:42.355Z,32.37
2019-01-21T13:30:59.032Z,34.27
2019-01-21T13:34:08.409Z,30.70
2019-01-21T13:37:26.975Z,31.50
2019-01-21T13:40:42.377Z,33.47
2019-01-21T13:43:34.246Z,31.30
2019-01-21T13:46:37.018Z,31.73
2019-01-21T13:49:40.925Z,31.57
2019-01-21T13:52:47.143Z,31.87
2019-01-21T13:55:41.985Z,31.17
2019-01-21T13:58:41.076Z,30.27
2019-01-21T14:01:35.728Z,36.17
2019-01-21T14:04:41.030Z,34.20
2019-01-21T14:08:15.882Z,30.90
2019-01-21T14:11:15.985Z,30.33
2019-01-21T14:14:08.826Z,34.30
2019-01-21T14:16:58.979Z,26.00
2019-01-21T14:20:06.689Z,30.67
2019-01-21T14:23:12.149Z,31.40
2019-01-21T14:26:22.955Z,25.80
2019-01-21T14:29:30.869Z,25.60
2019-01-21T14:32:34.630Z,23.43
2019-01-21T14:35:45.490Z,24.80
2019-01-21T14:38:56.316Z,20.80
2019-01-21T14:42:24.705Z,22.47
2019-01-21T14:45:27.585Z,20.17
2019-01-21T14:48:34.660Z,21.90
2019-01-21T14:51:39.630Z,21.07
2019-01-21T14:54:56.747Z,19.83
2019-01-21T14:58:04.088Z,20.60
2019-01-21T15:01:04.985Z,19.17
2019-01-21T15:03:46.263Z,22.57
2019-01-21T15:06:42.012Z,17.70
2019-01-21T15:09:48.895Z,19.73
2019-01-21T15:12:54.977Z,21.13
2019-01-21T15:15:58.210Z,19.17
2019-01-21T15:19:04.194Z,19.20
2019-01-21T15:22:00.156Z,21.63
2019-01-21T15:24:54.361Z,21.37
2019-01-21T15:27:55.300Z,20.67
2019-01-21T15:30:54.048Z,18.90
2019-01-21T15:34:11.099Z,21.50
2019-01-21T15:37:25.230Z,22.87
2019-01-21T15:40:38.294Z,18.47
2019-01-21T15:43:24.914Z,19.80
2019-01-21T15:46:30.567Z,19.60
2019-01-21T15:49:35.050Z,16.77
2019-01-21T15:52:13.181Z,17.20
2019-01-21T15:55:28.464Z,16.23
2019-01-21T15:58:26.158Z,17.97
2019-01-21T16:01:32.107Z,19.33
2019-01-21T16:04:39.805Z,15.87
2019-01-21T16:07:48.046Z,16.40
2019-01-21T16:10:35.418Z,17.77
2019-01-21T16:13:44.452Z,20.00
2019-01-21T16:16:56.908Z,20.03
2019-01-21T16:19:47.647Z,19.13
2019-01-21T16:23:03.442Z,16.00
2019-01-21T16:26:34.555Z,18.13
2019-01-21T16:29:42.229Z,18.83
2019-01-21T16:33:14.667Z,20.80
2019-01-21T16:36:05.463Z,17.03
2019-01-21T16:39:06.131Z,18.43
2019-01-21T16:42:18.311Z,17.73
2019-01-21T16:44:49.293Z,18.67
2019-01-21T16:47:21.115Z,18.03
2019-01-21T16:49:51.190Z,17.60
2019-01-21T16:52:20.992Z,20.23
2019-01-21T16:54:50.650Z,22.20
2019-01-21T16:57:20.380Z,16.93
2019-01-21T16:59:50.018Z,19.00
2019-01-21T17:02:19.631Z,20.17
2019-01-21T17:04:49.256Z,20.57
2019-01-21T17:07:18.972Z,22.73
2019-01-21T17:09:48.673Z,21.77
2019-01-21T17:12:18.173Z,21.67
2019-01-21T17:14:47.895Z,22.37
2019-01-21T17:17:17.470Z,24.40
2019-01-21T17:19:47.190Z,22.93
2019-01-21T17:22:16.833Z,20.70
2019-01-21T17:24:46.392Z,22.40
2019-01-21T17:27:16.061Z,21.80
2019-01-21T17:29:45.815Z,19.97
2019-01-21T17:32:15.451Z,22.90
2019-01-21T17:34:45.116Z,20.87
2019-01-21T17:37:14.824Z,21.97
2019-01-21T17:39:44.636Z,19.30
2019-01-21T17:42:14.289Z,23.30
2019-01-21T17:44:43.851Z,27.93
2019-01-21T17:47:13.806Z,25.37
2019-01-21T17:49:43.545Z,22.60
2019-01-21T17:52:13.207Z,23.17
2019-01-21T17:54:42.771Z,24.17
2019-01-21T17:57:12.531Z,23.23
2019-01-21T17:59:42.219Z,23.33
2019-01-21T18:02:12.289Z,25.90
2019-01-21T18:04:42.035Z,22.37
2019-01-21T18:07:11.550Z,25.40
2019-01-21T18:09:41.669Z,22.77
2019-01-21T18:12:11.321Z,24.07
2019-01-21T18:14:41.043Z,23.47
2019-01-21T18:17:10.699Z,25.30
2019-01-21T18:19:40.836Z,25.20
2019-01-21T18:22:10.930Z,23.13
2019-01-21T18:24:40.851Z,23.43
2019-01-21T18:27:10.816Z,23.40
2019-01-21T18:29:40.795Z,27.97
2019-01-21T18:32:10.749Z,24.57
2019-01-21T18:34:40.624Z,21.67
2019-01-21T18:37:10.371Z,23.80
2019-01-21T18:39:40.014Z,22.47
2019-01-21T18:42:12.305Z,24.63
2019-01-21T18:44:42.270Z,26.90
2019-01-21T18:47:12.226Z,21.27
2019-01-21T18:49:42.281Z,27.80
2019-01-21T18:52:12.267Z,28.20
2019-01-21T18:54:42.248Z,24.63
2019-01-21T18:57:12.321Z,25.00
2019-01-21T18:59:42.316Z,27.73
2019-01-21T19:02:12.261Z,27.87
2019-01-21T19:04:42.352Z,29.87
2019-01-21T19:07:12.577Z,24.93
2019-01-21T19:09:42.577Z,25.77
2019-01-21T19:12:12.793Z,24.73
2019-01-21T19:14:42.939Z,29.90
2019-01-21T19:17:12.969Z,27.20
2019-01-21T19:19:42.977Z,25.70
2019-01-21T19:22:13.101Z,28.03
2019-01-21T19:24:43.113Z,28.30
2019-01-21T19:27:13.149Z,28.60
2019-01-21T19:29:42.997Z,30.37
2019-01-21T19:32:13.002Z,31.33
2019-01-21T19:34:43.155Z,30.33
2019-01-21T19:37:13.738Z,28.23
2019-01-21T19:39:43.893Z,28.87
2019-01-21T19:42:15.193Z,29.17
2019-01-21T19:44:45.277Z,28.27
2019-01-21T19:47:15.233Z,28.60
2019-01-21T19:49:45.307Z,30.20
2019-01-21T19:52:15.312Z,28.13
2019-01-21T19:54:47.816Z,27.17
2019-01-21T19:57:17.813Z,27.73
2019-01-21T19:59:47.756Z,26.17
2019-01-21T20:02:17.695Z,31.57
2019-01-21T20:04:50.058Z,26.93
2019-01-21T20:07:20.657Z,27.00
2019-01-21T20:09:50.731Z,27.17
2019-01-21T20:12:20.862Z,29.87
2019-01-21T20:14:50.993Z,30.63
2019-01-21T20:17:21.152Z,26.93
2019-01-21T20:19:51.160Z,26.60
2019-01-21T20:22:21.172Z,30.73
2019-01-21T20:24:51.062Z,33.43
2019-01-21T20:27:21.258Z,31.60
2019-01-21T20:29:51.548Z,32.57
2019-01-21T20:32:21.746Z,27.30
2019-01-21T20:34:51.651Z,30.07
2019-01-21T20:37:21.636Z,29.80
2019-01-21T20:39:51.718Z,28.60
2019-01-21T20:42:21.855Z,32.60
2019-01-21T20:44:51.807Z,31.17
2019-01-21T20:47:21.905Z,30.87
2019-01-21T20:49:51.885Z,30.00
2019-01-21T20:52:22.208Z,32.87
2019-01-21T20:54:52.237Z,28.17
2019-01-21T20:57:22.346Z,33.27
2019-01-21T20:59:52.365Z,27.90
2019-01-21T21:02:22.426Z,31.67
2019-01-21T21:04:51.992Z,31.47
2019-01-21T21:07:21.756Z,33.20
2019-01-21T21:09:51.400Z,31.07
2019-01-21T21:12:25.804Z,28.80
2019-01-21T21:14:52.820Z,28.60
2019-01-21T21:17:22.706Z,27.67
2019-01-21T21:19:52.350Z,31.10
2019-01-21T21:22:21.953Z,28.17
2019-01-21T21:24:51.572Z,29.87
2019-01-21T21:27:21.206Z,26.50
2019-01-21T21:29:50.702Z,27.00
2019-01-21T21:32:20.277Z,30.57
2019-01-21T21:34:50.166Z,26.57
2019-01-21T21:37:19.908Z,25.17
2019-01-21T21:39:49.610Z,28.67
2019-01-21T21:42:19.217Z,31.67
2019-01-21T21:44:48.709Z,28.30
2019-01-21T21:47:18.375Z,28.03
2019-01-21T21:49:47.951Z,29.70
2019-01-21T21:52:17.616Z,28.20
2019-01-21T21:54:47.326Z,28.87
2019-01-21T21:57:16.897Z,30.17
2019-01-21T21:59:46.557Z,31.03
2019-01-21T22:02:16.313Z,27.13
2019-01-21T22:04:45.980Z,29.70
2019-01-21T22:07:15.713Z,25.80
2019-01-21T22:09:45.477Z,30.10
2019-01-21T22:12:15.203Z,26.80
2019-01-21T22:14:44.900Z,29.07
2019-01-21T22:17:14.455Z,27.47
2019-01-21T22:19:44.170Z,29.40
2019-01-21T22:22:13.888Z,31.27
2019-01-21T22:24:43.592Z,26.50
2019-01-21T22:27:13.227Z,29.53
2019-01-21T22:29:42.956Z,29.60
2019-01-21T22:32:12.628Z,27.07
2019-01-21T22:34:42.425Z,29.07
2019-01-21T22:37:12.107Z,28.37
2019-01-21T22:39:41.712Z,27.57
2019-01-21T22:42:11.428Z,30.90
2019-01-21T22:44:41.108Z,29.40
2019-01-21T22:47:10.815Z,26.20
2019-01-21T22:49:40.352Z,26.90
2019-01-21T22:52:09.928Z,25.97
2019-01-21T22:54:39.534Z,26.10
2019-01-21T22:57:09.285Z,30.13
2019-01-21T22:59:38.923Z,26.97
2019-01-21T23:02:08.552Z,29.97
2019-01-21T23:04:38.391Z,30.33
2019-01-21T23:07:08.149Z,28.20
2019-01-21T23:09:37.868Z,28.17
2019-01-21T23:12:07.589Z,28.50
2019-01-21T23:14:37.256Z,30.20
2019-01-21T23:17:06.993Z,28.37
2019-01-21T23:19:36.692Z,28.27
2019-01-21T23:22:06.275Z,27.20
2019-01-21T23:24:36.085Z,29.00
2019-01-21T23:27:05.895Z,32.30
2019-01-21T23:29:35.546Z,29.17
2019-01-21T23:32:05.281Z,29.97
2019-01-21T23:34:35.359Z,26.00
2019-01-21T23:37:05.104Z,30.37
2019-01-21T23:39:34.600Z,24.97
2019-01-21T23:42:04.090Z,29.57
2019-01-21T23:44:33.580Z,31.50
2019-01-21T23:47:03.312Z,32.90
2019-01-21T23:49:33.044Z,26.67
2019-01-21T23:52:02.571Z,29.27
2019-01-21T23:54:32.432Z,27.80
2019-01-21T23:57:05.513Z,27.33
2019-01-21T23:59:35.297Z,30.70
